sensor_id;sensor_type;location;lat;lon;timestamp;pressure;altitude;pressure_sealevel;temperature;humidity
13348;BME280;6743;49.934;9.138;2023-08-20T00:01:19;100748.91;;;24.11;100.00
13348;BME280;6743;49.934;9.138;2023-08-20T00:03:48;100752.06;;;24.08;100.00
13348;BME280;6743;49.934;9.138;2023-08-20T00:06:14;100752.31;;;24.07;100.00
13348;BME280;6743;49.934;9.138;2023-08-20T00:08:40;100745.50;;;24.04;100.00
13348;BME280;6743;49.934;9.138;2023-08-20T00:11:06;100745.87;;;23.96;100.00
13348;BME280;6743;49.934;9.138;2023-08-20T00:13:32;100745.75;;;24.03;100.00
13348;BME280;6743;49.934;9.138;2023-08-20T00:15:59;100748.13;;;23.99;100.00
13348;BME280;6743;49.934;9.138;2023-08-20T00:18:26;100745.97;;;24.01;100.00
13348;BME280;6743;49.934;9.138;2023-08-20T00:20:53;100744.59;;;23.99;100.00
13348;BME280;6743;49.934;9.138;2023-08-20T00:23:20;100742.34;;;23.95;100.00
13348;BME280;6743;49.934;9.138;2023-08-20T00:25:46;100715.81;;;23.69;100.00
13348;BME280;6743;49.934;9.138;2023-08-20T00:28:12;100747.66;;;23.90;100.00
13348;BME280;6743;49.934;9.138;2023-08-20T00:30:39;100749.56;;;23.90;100.00
13348;BME280;6743;49.934;9.138;2023-08-20T00:33:05;100750.62;;;23.89;100.00
13348;BME280;6743;49.934;9.138;2023-08-20T00:35:31;100756.25;;;23.87;100.00
13348;BME280;6743;49.934;9.138;2023-08-20T00:37:58;100741.34;;;23.73;100.00
13348;BME280;6743;49.934;9.138;2023-08-20T00:40:24;100759.72;;;23.83;100.00
13348;BME280;6743;49.934;9.138;2023-08-20T00:42:50;100759.94;;;23.81;100.00
13348;BME280;6743;49.934;9.138;2023-08-20T00:45:16;100748.19;;;23.76;100.00
13348;BME280;6743;49.934;9.138;2023-08-20T00:47:42;100764.75;;;23.79;100.00
13348;BME280;6743;49.934;9.138;2023-08-20T00:50:09;100766.66;;;23.79;100.00
13348;BME280;6743;49.934;9.138;2023-08-20T00:52:37;100775.59;;;23.79;100.00
13348;BME280;6743;49.934;9.138;2023-08-20T00:55:08;100715.47;;;23.54;100.00
13348;BME280;6743;49.934;9.138;2023-08-20T00:57:34;100765.50;;;23.75;100.00
13348;BME280;6743;49.934;9.138;2023-08-20T01:00:01;100768.69;;;23.72;100.00
13348;BME280;6743;49.934;9.138;2023-08-20T01:02:29;100764.34;;;23.71;100.00
13348;BME280;6743;49.934;9.138;2023-08-20T01:04:55;100772.47;;;23.71;100.00
13348;BME280;6743;49.934;9.138;2023-08-20T01:07:30;100771.63;;;23.70;100.00
13348;BME280;6743;49.934;9.138;2023-08-20T01:10:04;100775.63;;;23.68;100.00
13348;BME280;6743;49.934;9.138;2023-08-20T01:12:34;100751.28;;;23.56;100.00
13348;BME280;6743;49.934;9.138;2023-08-20T01:15:00;100773.75;;;23.68;100.00
13348;BME280;6743;49.934;9.138;2023-08-20T01:17:26;100759.88;;;23.65;100.00
13348;BME280;6743;49.934;9.138;2023-08-20T01:19:52;100763.63;;;23.64;100.00
13348;BME280;6743;49.934;9.138;2023-08-20T01:22:33;100763.63;;;23.64;100.00
13348;BME280;6743;49.934;9.138;2023-08-20T01:25:11;100763.50;;;23.59;100.00
13348;BME280;6743;49.934;9.138;2023-08-20T01:27:46;100769.19;;;23.57;100.00
13348;BME280;6743;49.934;9.138;2023-08-20T01:30:18;100765.87;;;23.55;100.00
13348;BME280;6743;49.934;9.138;2023-08-20T01:32:47;100768.81;;;23.53;100.00
13348;BME280;6743;49.934;9.138;2023-08-20T01:35:16;100765.78;;;23.50;100.00
13348;BME280;6743;49.934;9.138;2023-08-20T01:37:43;100756.94;;;23.43;100.00
13348;BME280;6743;49.934;9.138;2023-08-20T01:40:09;100763.84;;;23.39;100.00
13348;BME280;6743;49.934;9.138;2023-08-20T01:42:36;100767.06;;;23.36;100.00
13348;BME280;6743;49.934;9.138;2023-08-20T01:45:03;100761.88;;;23.34;100.00
13348;BME280;6743;49.934;9.138;2023-08-20T01:47:30;100761.50;;;23.31;100.00
13348;BME280;6743;49.934;9.138;2023-08-20T01:49:56;100766.91;;;23.31;100.00
13348;BME280;6743;49.934;9.138;2023-08-20T01:52:22;100769.06;;;23.29;100.00
13348;BME280;6743;49.934;9.138;2023-08-20T01:54:48;100762.72;;;23.23;100.00
13348;BME280;6743;49.934;9.138;2023-08-20T01:57:14;100757.53;;;23.22;100.00
13348;BME280;6743;49.934;9.138;2023-08-20T01:59:40;100772.34;;;23.19;100.00
13348;BME280;6743;49.934;9.138;2023-08-20T02:02:06;100768.22;;;23.16;100.00
13348;BME280;6743;49.934;9.138;2023-08-20T02:04:33;100766.44;;;23.10;100.00
13348;BME280;6743;49.934;9.138;2023-08-20T02:07:00;100772.13;;;23.09;100.00
13348;BME280;6743;49.934;9.138;2023-08-20T02:09:26;100768.22;;;23.05;100.00
13348;BME280;6743;49.934;9.138;2023-08-20T02:11:52;100764.69;;;23.04;100.00
13348;BME280;6743;49.934;9.138;2023-08-20T02:14:18;100766.22;;;23.00;100.00
13348;BME280;6743;49.934;9.138;2023-08-20T02:16:45;100764.78;;;22.98;100.00
13348;BME280;6743;49.934;9.138;2023-08-20T02:19:11;100762.56;;;22.95;100.00
13348;BME280;6743;49.934;9.138;2023-08-20T02:21:38;100770.09;;;22.93;100.00
13348;BME280;6743;49.934;9.138;2023-08-20T02:24:05;100758.44;;;22.92;100.00
13348;BME280;6743;49.934;9.138;2023-08-20T02:26:31;100767.59;;;22.91;100.00
13348;BME280;6743;49.934;9.138;2023-08-20T02:28:57;100768.66;;;22.90;100.00
13348;BME280;6743;49.934;9.138;2023-08-20T02:31:23;100762.09;;;22.86;100.00
13348;BME280;6743;49.934;9.138;2023-08-20T02:33:49;100769.00;;;22.82;100.00
13348;BME280;6743;49.934;9.138;2023-08-20T02:36:15;100740.50;;;22.68;100.00
13348;BME280;6743;49.934;9.138;2023-08-20T02:38:41;100758.06;;;22.77;100.00
13348;BME280;6743;49.934;9.138;2023-08-20T02:41:07;100757.47;;;22.75;100.00
13348;BME280;6743;49.934;9.138;2023-08-20T02:43:34;100768.28;;;22.75;100.00
13348;BME280;6743;49.934;9.138;2023-08-20T02:46:00;100776.84;;;22.72;100.00
13348;BME280;6743;49.934;9.138;2023-08-20T02:48:26;100777.66;;;22.72;100.00
13348;BME280;6743;49.934;9.138;2023-08-20T02:50:53;100784.75;;;22.73;100.00
13348;BME280;6743;49.934;9.138;2023-08-20T02:53:19;100780.75;;;22.76;100.00
13348;BME280;6743;49.934;9.138;2023-08-20T02:55:46;100771.97;;;22.62;100.00
13348;BME280;6743;49.934;9.138;2023-08-20T02:58:12;100784.75;;;22.73;100.00
13348;BME280;6743;49.934;9.138;2023-08-20T03:00:38;100782.69;;;22.69;100.00
13348;BME280;6743;49.934;9.138;2023-08-20T03:03:04;100776.94;;;22.65;100.00
13348;BME280;6743;49.934;9.138;2023-08-20T03:05:33;100776.34;;;22.63;100.00
13348;BME280;6743;49.934;9.138;2023-08-20T03:07:59;100779.75;;;22.59;100.00
13348;BME280;6743;49.934;9.138;2023-08-20T03:10:25;100782.31;;;22.54;100.00
13348;BME280;6743;49.934;9.138;2023-08-20T03:12:52;100763.81;;;22.39;100.00
13348;BME280;6743;49.934;9.138;2023-08-20T03:15:18;100771.34;;;22.49;100.00
13348;BME280;6743;49.934;9.138;2023-08-20T03:18:00;100770.31;;;22.50;100.00
13348;BME280;6743;49.934;9.138;2023-08-20T03:21:19;100775.94;;;22.48;100.00
13348;BME280;6743;49.934;9.138;2023-08-20T03:24:21;100778.28;;;22.45;100.00
13348;BME280;6743;49.934;9.138;2023-08-20T03:26:49;100758.34;;;22.27;100.00
13348;BME280;6743;49.934;9.138;2023-08-20T03:29:25;100781.31;;;22.36;100.00
13348;BME280;6743;49.934;9.138;2023-08-20T03:32:24;100783.78;;;22.38;100.00
13348;BME280;6743;49.934;9.138;2023-08-20T03:34:58;100788.81;;;22.34;100.00
13348;BME280;6743;49.934;9.138;2023-08-20T03:37:40;100788.69;;;22.29;100.00
13348;BME280;6743;49.934;9.138;2023-08-20T03:40:07;100789.16;;;22.26;100.00
13348;BME280;6743;49.934;9.138;2023-08-20T03:43:16;100789.59;;;22.23;100.00
13348;BME280;6743;49.934;9.138;2023-08-20T03:45:58;100788.78;;;22.23;100.00
13348;BME280;6743;49.934;9.138;2023-08-20T03:49:16;100788.03;;;22.16;100.00
13348;BME280;6743;49.934;9.138;2023-08-20T03:52:03;100757.31;;;21.98;100.00
13348;BME280;6743;49.934;9.138;2023-08-20T03:54:57;100780.41;;;22.13;100.00
13348;BME280;6743;49.934;9.138;2023-08-20T03:57:40;100783.75;;;22.08;100.00
13348;BME280;6743;49.934;9.138;2023-08-20T04:00:09;100770.81;;;21.98;100.00
13348;BME280;6743;49.934;9.138;2023-08-20T04:02:52;100769.28;;;22.03;100.00
13348;BME280;6743;49.934;9.138;2023-08-20T04:05:36;100743.47;;;21.88;100.00
13348;BME280;6743;49.934;9.138;2023-08-20T04:08:18;100770.81;;;21.98;100.00
13348;BME280;6743;49.934;9.138;2023-08-20T04:10:52;100769.37;;;21.96;100.00
13348;BME280;6743;49.934;9.138;2023-08-20T04:13:19;100774.34;;;21.92;100.00
13348;BME280;6743;49.934;9.138;2023-08-20T04:15:45;100778.34;;;21.90;100.00
13348;BME280;6743;49.934;9.138;2023-08-20T04:18:54;100786.91;;;21.87;100.00
13348;BME280;6743;49.934;9.138;2023-08-20T04:22:02;100785.50;;;21.84;100.00
13348;BME280;6743;49.934;9.138;2023-08-20T04:25:15;100793.34;;;21.86;100.00
13348;BME280;6743;49.934;9.138;2023-08-20T04:27:49;100788.41;;;21.83;100.00
13348;BME280;6743;49.934;9.138;2023-08-20T04:30:56;100773.56;;;21.74;100.00
13348;BME280;6743;49.934;9.138;2023-08-20T04:33:32;100789.06;;;21.78;100.00
13348;BME280;6743;49.934;9.138;2023-08-20T04:36:33;100798.84;;;21.79;100.00
13348;BME280;6743;49.934;9.138;2023-08-20T04:39:24;100793.91;;;21.76;100.00
13348;BME280;6743;49.934;9.138;2023-08-20T04:41:50;100794.72;;;21.77;100.00
13348;BME280;6743;49.934;9.138;2023-08-20T04:44:20;100772.87;;;21.60;100.00
13348;BME280;6743;49.934;9.138;2023-08-20T04:47:26;100798.69;;;21.74;100.00
13348;BME280;6743;49.934;9.138;2023-08-20T04:50:20;100781.94;;;21.66;100.00
13348;BME280;6743;49.934;9.138;2023-08-20T04:53:08;100815.03;;;21.79;100.00
13348;BME280;6743;49.934;9.138;2023-08-20T04:55:34;100800.41;;;21.69;100.00
13348;BME280;6743;49.934;9.138;2023-08-20T04:58:00;100820.50;;;21.73;100.00
13348;BME280;6743;49.934;9.138;2023-08-20T05:00:43;100818.09;;;21.65;100.00
13348;BME280;6743;49.934;9.138;2023-08-20T05:03:31;100829.38;;;21.61;100.00
13348;BME280;6743;49.934;9.138;2023-08-20T05:06:09;100830.31;;;21.49;100.00
13348;BME280;6743;49.934;9.138;2023-08-20T05:09:09;100824.53;;;21.45;100.00
13348;BME280;6743;49.934;9.138;2023-08-20T05:11:39;100824.94;;;21.49;100.00
13348;BME280;6743;49.934;9.138;2023-08-20T05:14:05;100827.41;;;21.50;100.00
13348;BME280;6743;49.934;9.138;2023-08-20T05:16:31;100782.16;;;21.28;100.00
13348;BME280;6743;49.934;9.138;2023-08-20T05:19:16;100834.63;;;21.56;100.00
13348;BME280;6743;49.934;9.138;2023-08-20T05:22:28;100838.72;;;21.59;100.00
13348;BME280;6743;49.934;9.138;2023-08-20T05:25:30;100844.75;;;21.61;100.00
13348;BME280;6743;49.934;9.138;2023-08-20T05:28:10;100845.72;;;21.67;100.00
13348;BME280;6743;49.934;9.138;2023-08-20T05:31:02;100842.38;;;21.71;100.00
13348;BME280;6743;49.934;9.138;2023-08-20T05:33:39;100844.38;;;21.76;100.00
13348;BME280;6743;49.934;9.138;2023-08-20T05:36:25;100849.31;;;21.79;100.00
13348;BME280;6743;49.934;9.138;2023-08-20T05:42:10;100854.66;;;21.85;100.00
13348;BME280;6743;49.934;9.138;2023-08-20T05:45:17;100857.53;;;21.90;100.00
13348;BME280;6743;49.934;9.138;2023-08-20T05:47:46;100861.63;;;21.93;100.00
13348;BME280;6743;49.934;9.138;2023-08-20T05:50:31;100848.97;;;21.93;100.00
13348;BME280;6743;49.934;9.138;2023-08-20T05:52:56;100841.84;;;21.99;100.00
13348;BME280;6743;49.934;9.138;2023-08-20T05:58:39;100854.31;;;22.00;100.00
13348;BME280;6743;49.934;9.138;2023-08-20T06:01:43;100867.41;;;22.03;100.00
13348;BME280;6743;49.934;9.138;2023-08-20T06:04:25;100866.34;;;22.04;100.00
13348;BME280;6743;49.934;9.138;2023-08-20T06:06:53;100843.97;;;21.97;100.00
13348;BME280;6743;49.934;9.138;2023-08-20T06:09:41;100863.09;;;22.14;100.00
13348;BME280;6743;49.934;9.138;2023-08-20T06:12:09;100859.75;;;22.18;100.00
13348;BME280;6743;49.934;9.138;2023-08-20T06:14:37;100861.75;;;22.23;100.00
13348;BME280;6743;49.934;9.138;2023-08-20T06:17:04;100859.44;;;22.26;100.00
13348;BME280;6743;49.934;9.138;2023-08-20T06:19:30;100870.81;;;22.28;100.00
13348;BME280;6743;49.934;9.138;2023-08-20T06:21:56;100866.63;;;22.32;100.00
13348;BME280;6743;49.934;9.138;2023-08-20T06:24:22;100869.69;;;22.36;100.00
13348;BME280;6743;49.934;9.138;2023-08-20T06:27:04;100864.69;;;22.39;100.00
13348;BME280;6743;49.934;9.138;2023-08-20T06:29:31;100871.28;;;22.44;100.00
13348;BME280;6743;49.934;9.138;2023-08-20T06:32:04;100809.38;;;22.06;100.00
13348;BME280;6743;49.934;9.138;2023-08-20T06:34:48;100874.09;;;22.49;100.00
13348;BME280;6743;49.934;9.138;2023-08-20T06:37:22;100881.63;;;22.47;100.00
13348;BME280;6743;49.934;9.138;2023-08-20T06:39:48;100883.88;;;22.50;100.00
13348;BME280;6743;49.934;9.138;2023-08-20T06:42:14;100885.31;;;22.52;100.00
13348;BME280;6743;49.934;9.138;2023-08-20T06:44:40;100879.41;;;22.55;100.00
13348;BME280;6743;49.934;9.138;2023-08-20T06:47:10;100892.50;;;22.58;100.00
13348;BME280;6743;49.934;9.138;2023-08-20T06:49:41;100888.53;;;22.61;100.00
13348;BME280;6743;49.934;9.138;2023-08-20T06:52:08;100895.56;;;22.62;100.00
13348;BME280;6743;49.934;9.138;2023-08-20T06:54:34;100874.50;;;22.52;100.00
13348;BME280;6743;49.934;9.138;2023-08-20T06:57:22;100894.69;;;22.68;100.00
13348;BME280;6743;49.934;9.138;2023-08-20T06:59:48;100897.31;;;22.74;100.00
13348;BME280;6743;49.934;9.138;2023-08-20T07:02:15;100902.63;;;22.81;100.00
13348;BME280;6743;49.934;9.138;2023-08-20T07:05:00;100897.66;;;22.78;100.00
13348;BME280;6743;49.934;9.138;2023-08-20T07:07:25;100905.25;;;22.88;100.00
13348;BME280;6743;49.934;9.138;2023-08-20T07:09:55;100911.00;;;22.91;100.00
13348;BME280;6743;49.934;9.138;2023-08-20T07:12:22;100902.44;;;22.94;100.00
13348;BME280;6743;49.934;9.138;2023-08-20T07:14:49;100905.50;;;22.98;100.00
13348;BME280;6743;49.934;9.138;2023-08-20T07:17:16;100910.25;;;23.02;100.00
13348;BME280;6743;49.934;9.138;2023-08-20T07:19:44;100901.66;;;23.05;100.00
13348;BME280;6743;49.934;9.138;2023-08-20T07:22:11;100910.59;;;23.06;100.00
13348;BME280;6743;49.934;9.138;2023-08-20T07:24:37;100919.16;;;23.03;100.00
13348;BME280;6743;49.934;9.138;2023-08-20T07:27:03;100914.56;;;23.03;100.00
13348;BME280;6743;49.934;9.138;2023-08-20T07:29:36;100915.31;;;23.10;100.00
13348;BME280;6743;49.934;9.138;2023-08-20T07:32:02;100920.03;;;23.15;100.00
13348;BME280;6743;49.934;9.138;2023-08-20T07:34:29;100923.94;;;23.19;100.00
13348;BME280;6743;49.934;9.138;2023-08-20T07:36:56;100923.22;;;23.24;100.00
13348;BME280;6743;49.934;9.138;2023-08-20T07:39:22;100924.87;;;23.25;100.00
13348;BME280;6743;49.934;9.138;2023-08-20T07:41:48;100912.53;;;23.29;100.00
13348;BME280;6743;49.934;9.138;2023-08-20T07:44:14;100913.25;;;23.36;100.00
13348;BME280;6743;49.934;9.138;2023-08-20T07:46:40;100911.28;;;23.43;100.00
13348;BME280;6743;49.934;9.138;2023-08-20T07:49:06;100910.97;;;23.51;100.00
13348;BME280;6743;49.934;9.138;2023-08-20T07:51:33;100913.56;;;23.58;100.00
13348;BME280;6743;49.934;9.138;2023-08-20T07:54:00;100912.84;;;23.62;100.00
13348;BME280;6743;49.934;9.138;2023-08-20T07:56:26;100923.47;;;23.64;100.00
13348;BME280;6743;49.934;9.138;2023-08-20T07:58:52;100930.28;;;23.66;100.00
13348;BME280;6743;49.934;9.138;2023-08-20T08:01:18;100919.09;;;23.63;100.00
13348;BME280;6743;49.934;9.138;2023-08-20T08:03:44;100918.87;;;23.76;100.00
13348;BME280;6743;49.934;9.138;2023-08-20T08:06:10;100904.97;;;23.84;100.00
13348;BME280;6743;49.934;9.138;2023-08-20T08:08:42;100905.44;;;23.92;100.00
13348;BME280;6743;49.934;9.138;2023-08-20T08:11:23;100902.63;;;23.99;100.00
13348;BME280;6743;49.934;9.138;2023-08-20T08:13:49;100907.91;;;24.06;100.00
13348;BME280;6743;49.934;9.138;2023-08-20T08:16:15;100910.84;;;24.04;100.00
13348;BME280;6743;49.934;9.138;2023-08-20T08:18:56;100914.38;;;24.05;100.00
13348;BME280;6743;49.934;9.138;2023-08-20T08:21:26;100915.78;;;24.07;100.00
13348;BME280;6743;49.934;9.138;2023-08-20T08:23:52;100872.31;;;23.79;100.00
13348;BME280;6743;49.934;9.138;2023-08-20T08:26:19;100924.87;;;24.13;100.00
13348;BME280;6743;49.934;9.138;2023-08-20T08:28:45;100925.69;;;24.13;100.00
13348;BME280;6743;49.934;9.138;2023-08-20T08:31:11;100930.62;;;24.16;100.00
13348;BME280;6743;49.934;9.138;2023-08-20T08:33:38;100916.84;;;24.18;100.00
13348;BME280;6743;49.934;9.138;2023-08-20T08:36:06;100921.34;;;24.24;100.00
13348;BME280;6743;49.934;9.138;2023-08-20T08:38:37;100909.91;;;24.22;100.00
13348;BME280;6743;49.934;9.138;2023-08-20T08:41:10;100912.59;;;24.33;100.00
13348;BME280;6743;49.934;9.138;2023-08-20T08:43:39;100911.87;;;24.38;100.00
13348;BME280;6743;49.934;9.138;2023-08-20T08:46:22;100907.97;;;24.46;100.00
13348;BME280;6743;49.934;9.138;2023-08-20T08:48:56;100905.03;;;24.47;100.00
13348;BME280;6743;49.934;9.138;2023-08-20T08:51:25;100903.00;;;24.54;100.00
13348;BME280;6743;49.934;9.138;2023-08-20T08:53:53;100907.47;;;24.60;100.00
13348;BME280;6743;49.934;9.138;2023-08-20T08:56:21;100906.47;;;24.66;100.00
13348;BME280;6743;49.934;9.138;2023-08-20T08:59:21;100890.34;;;24.60;100.00
13348;BME280;6743;49.934;9.138;2023-08-20T09:02:32;100917.06;;;24.80;100.00
13348;BME280;6743;49.934;9.138;2023-08-20T09:22:32;100928.53;;;25.27;100.00
13348;BME280;6743;49.934;9.138;2023-08-20T09:25:10;100923.75;;;25.34;100.00
13348;BME280;6743;49.934;9.138;2023-08-20T09:28:08;100920.28;;;25.38;100.00
13348;BME280;6743;49.934;9.138;2023-08-20T09:35:17;100915.34;;;25.52;100.00
13348;BME280;6743;49.934;9.138;2023-08-20T09:38:52;100877.09;;;25.37;100.00
13348;BME280;6743;49.934;9.138;2023-08-20T09:41:35;100908.91;;;25.70;100.00
13348;BME280;6743;49.934;9.138;2023-08-20T09:44:26;100913.34;;;25.76;100.00
13348;BME280;6743;49.934;9.138;2023-08-20T09:46:59;100915.06;;;25.82;100.00
13348;BME280;6743;49.934;9.138;2023-08-20T09:49:29;100914.87;;;25.88;100.00
13348;BME280;6743;49.934;9.138;2023-08-20T09:52:04;100915.75;;;25.94;100.00
13348;BME280;6743;49.934;9.138;2023-08-20T09:54:52;100918.31;;;26.01;100.00
13348;BME280;6743;49.934;9.138;2023-08-20T09:57:39;100920.03;;;26.07;100.00
13348;BME280;6743;49.934;9.138;2023-08-20T10:00:11;100919.88;;;26.13;100.00
13348;BME280;6743;49.934;9.138;2023-08-20T10:02:52;100915.06;;;26.20;100.00
13348;BME280;6743;49.934;9.138;2023-08-20T10:05:19;100914.09;;;26.26;100.00
13348;BME280;6743;49.934;9.138;2023-08-20T10:07:47;100888.41;;;26.22;100.00
13348;BME280;6743;49.934;9.138;2023-08-20T10:16:42;100909.44;;;26.49;100.00
13348;BME280;6743;49.934;9.138;2023-08-20T10:19:19;100852.41;;;26.15;100.00
13348;BME280;6743;49.934;9.138;2023-08-20T10:22:20;100904.31;;;26.52;100.00
13348;BME280;6743;49.934;9.138;2023-08-20T10:24:48;100905.72;;;26.55;100.00
13348;BME280;6743;49.934;9.138;2023-08-20T10:27:24;100898.69;;;26.59;100.00
13348;BME280;6743;49.934;9.138;2023-08-20T10:29:52;100895.47;;;26.62;100.00
13348;BME280;6743;49.934;9.138;2023-08-20T10:32:20;100893.97;;;26.76;100.00
13348;BME280;6743;49.934;9.138;2023-08-20T10:34:50;100897.00;;;26.80;100.00
13348;BME280;6743;49.934;9.138;2023-08-20T10:37:26;100889.41;;;26.82;100.00
13348;BME280;6743;49.934;9.138;2023-08-20T10:39:55;100893.63;;;26.89;100.00
13348;BME280;6743;49.934;9.138;2023-08-20T10:42:23;100888.22;;;26.94;100.00
13348;BME280;6743;49.934;9.138;2023-08-20T10:45:02;100883.84;;;26.93;100.00
13348;BME280;6743;49.934;9.138;2023-08-20T10:47:37;100885.78;;;26.98;100.00
13348;BME280;6743;49.934;9.138;2023-08-20T10:50:03;100891.56;;;27.01;100.00
13348;BME280;6743;49.934;9.138;2023-08-20T10:52:29;100893.50;;;27.06;100.00
13348;BME280;6743;49.934;9.138;2023-08-20T10:55:09;100893.28;;;27.13;100.00
13348;BME280;6743;49.934;9.138;2023-08-20T10:57:56;100888.41;;;27.15;100.00
13348;BME280;6743;49.934;9.138;2023-08-20T11:00:22;100884.87;;;27.19;100.00
13348;BME280;6743;49.934;9.138;2023-08-20T11:02:49;100891.19;;;27.25;100.00
13348;BME280;6743;49.934;9.138;2023-08-20T11:05:16;100886.88;;;27.29;100.00
13348;BME280;6743;49.934;9.138;2023-08-20T11:07:45;100891.88;;;27.37;100.00
13348;BME280;6743;49.934;9.138;2023-08-20T11:10:13;100879.34;;;27.41;100.00
13348;BME280;6743;49.934;9.138;2023-08-20T11:12:39;100888.13;;;27.48;100.00
13348;BME280;6743;49.934;9.138;2023-08-20T11:15:06;100850.66;;;27.28;100.00
13348;BME280;6743;49.934;9.138;2023-08-20T11:17:33;100875.56;;;27.47;100.00
13348;BME280;6743;49.934;9.138;2023-08-20T11:20:00;100877.03;;;27.55;100.00
13348;BME280;6743;49.934;9.138;2023-08-20T11:22:41;100859.22;;;27.47;100.00
13348;BME280;6743;49.934;9.138;2023-08-20T11:25:10;100881.16;;;27.62;100.00
13348;BME280;6743;49.934;9.138;2023-08-20T11:27:41;100880.91;;;27.64;100.00
13348;BME280;6743;49.934;9.138;2023-08-20T11:30:08;100881.19;;;27.67;100.00
13348;BME280;6743;49.934;9.138;2023-08-20T11:32:35;100886.16;;;27.75;100.00
13348;BME280;6743;49.934;9.138;2023-08-20T11:35:07;100866.81;;;27.77;100.00
13348;BME280;6743;49.934;9.138;2023-08-20T11:37:36;100878.94;;;28.01;100.00
13348;BME280;6743;49.934;9.138;2023-08-20T11:40:08;100876.78;;;28.08;100.00
13348;BME280;6743;49.934;9.138;2023-08-20T11:42:37;100882.56;;;28.12;100.00
13348;BME280;6743;49.934;9.138;2023-08-20T11:45:10;100875.19;;;28.12;100.00
13348;BME280;6743;49.934;9.138;2023-08-20T11:47:38;100876.03;;;28.13;100.00
13348;BME280;6743;49.934;9.138;2023-08-20T11:57:02;100876.91;;;28.29;100.00
13348;BME280;6743;49.934;9.138;2023-08-20T11:59:46;100876.72;;;28.40;100.00
13348;BME280;6743;49.934;9.138;2023-08-20T12:02:13;100872.88;;;28.41;100.00
13348;BME280;6743;49.934;9.138;2023-08-20T12:04:39;100877.00;;;28.49;100.00
13348;BME280;6743;49.934;9.138;2023-08-20T12:10:41;100869.66;;;28.65;100.00
13348;BME280;6743;49.934;9.138;2023-08-20T12:17:03;100847.56;;;28.71;100.00
13348;BME280;6743;49.934;9.138;2023-08-20T12:20:06;100863.69;;;28.73;100.00
13348;BME280;6743;49.934;9.138;2023-08-20T12:23:33;100860.97;;;28.78;100.00
13348;BME280;6743;49.934;9.138;2023-08-20T13:35:08;100821.62;;;29.70;100.00
13348;BME280;6743;49.934;9.138;2023-08-20T13:41:33;100813.91;;;29.82;100.00
13348;BME280;6743;49.934;9.138;2023-08-20T13:48:05;100808.16;;;29.84;100.00
13348;BME280;6743;49.934;9.138;2023-08-20T13:51:25;100812.78;;;29.88;100.00
13348;BME280;6743;49.934;9.138;2023-08-20T13:58:02;100812.50;;;30.05;100.00
13348;BME280;6743;49.934;9.138;2023-08-20T14:05:07;100808.66;;;30.06;100.00
13348;BME280;6743;49.934;9.138;2023-08-20T14:27:08;100803.72;;;30.62;97.82
13348;BME280;6743;49.934;9.138;2023-08-20T14:29:57;100801.66;;;30.83;96.17
13348;BME280;6743;49.934;9.138;2023-08-20T14:33:14;100805.88;;;31.04;93.31
13348;BME280;6743;49.934;9.138;2023-08-20T14:35:57;100800.56;;;31.18;90.93
13348;BME280;6743;49.934;9.138;2023-08-20T14:38:45;100781.31;;;31.23;90.19
13348;BME280;6743;49.934;9.138;2023-08-20T14:41:50;100803.84;;;31.44;88.72
13348;BME280;6743;49.934;9.138;2023-08-20T14:44:34;100804.00;;;31.57;87.04
13348;BME280;6743;49.934;9.138;2023-08-20T14:48:23;100805.03;;;31.66;85.70
13348;BME280;6743;49.934;9.138;2023-08-20T14:57:52;100797.50;;;31.96;84.61
13348;BME280;6743;49.934;9.138;2023-08-20T15:20:12;100780.38;;;32.46;77.54
13348;BME280;6743;49.934;9.138;2023-08-20T15:23:15;100778.72;;;32.45;77.57
13348;BME280;6743;49.934;9.138;2023-08-20T15:26:30;100776.44;;;32.53;79.15
13348;BME280;6743;49.934;9.138;2023-08-20T15:29:14;100781.53;;;32.59;76.21
13348;BME280;6743;49.934;9.138;2023-08-20T15:32:15;100781.47;;;32.64;75.19
13348;BME280;6743;49.934;9.138;2023-08-20T15:35:07;100783.66;;;32.67;74.34
13348;BME280;6743;49.934;9.138;2023-08-20T16:06:48;100769.25;;;32.75;69.81
13348;BME280;6743;49.934;9.138;2023-08-20T16:09:36;100764.03;;;32.74;72.02
13348;BME280;6743;49.934;9.138;2023-08-20T16:12:03;100774.44;;;32.77;72.28
13348;BME280;6743;49.934;9.138;2023-08-20T16:14:30;100769.63;;;32.69;69.29
13348;BME280;6743;49.934;9.138;2023-08-20T16:17:36;100775.03;;;32.74;70.61
13348;BME280;6743;49.934;9.138;2023-08-20T16:20:05;100758.69;;;32.64;70.22
13348;BME280;6743;49.934;9.138;2023-08-20T16:25:44;100744.31;;;32.34;69.51
13348;BME280;6743;49.934;9.138;2023-08-20T16:31:40;100757.97;;;32.21;70.43
13348;BME280;6743;49.934;9.138;2023-08-20T16:41:46;100765.94;;;31.98;70.52
13348;BME280;6743;49.934;9.138;2023-08-20T16:51:09;100760.69;;;31.78;72.15
13348;BME280;6743;49.934;9.138;2023-08-20T16:57:01;100764.09;;;31.70;71.98
13348;BME280;6743;49.934;9.138;2023-08-20T17:00:18;100764.16;;;31.65;73.93
13348;BME280;6743;49.934;9.138;2023-08-20T17:06:33;100764.59;;;31.48;76.62
13348;BME280;6743;49.934;9.138;2023-08-20T17:09:17;100758.06;;;31.44;79.72
13348;BME280;6743;49.934;9.138;2023-08-20T17:15:07;100760.62;;;31.36;81.76
13348;BME280;6743;49.934;9.138;2023-08-20T17:18:31;100734.56;;;31.09;80.53
13348;BME280;6743;49.934;9.138;2023-08-20T17:20:57;100765.44;;;31.20;81.76
13348;BME280;6743;49.934;9.138;2023-08-20T17:23:30;100754.25;;;31.16;81.54
13348;BME280;6743;49.934;9.138;2023-08-20T17:25:59;100709.81;;;30.85;82.28
13348;BME280;6743;49.934;9.138;2023-08-20T17:28:26;100759.47;;;31.13;82.55
13348;BME280;6743;49.934;9.138;2023-08-20T17:31:21;100762.81;;;31.10;82.76
13348;BME280;6743;49.934;9.138;2023-08-20T17:33:47;100767.22;;;31.06;84.21